sensor_id;sensor_type;location;lat;lon;timestamp;pressure;altitude;pressure_sealevel;temperature;humidity
19797;BME280;10058;57.654;12.044;2023-02-17T00:01:54;100465.63;;;6.65;100.00
19797;BME280;10058;57.654;12.044;2023-02-17T00:04:19;100486.38;;;6.81;100.00
19797;BME280;10058;57.654;12.044;2023-02-17T00:09:47;100481.13;;;6.81;100.00
19797;BME280;10058;57.654;12.044;2023-02-17T00:12:14;100474.09;;;6.80;100.00
19797;BME280;10058;57.654;12.044;2023-02-17T00:14:39;100469.53;;;6.75;100.00
19797;BME280;10058;57.654;12.044;2023-02-17T00:17:05;100468.72;;;6.77;100.00
19797;BME280;10058;57.654;12.044;2023-02-17T00:19:30;100462.47;;;6.74;100.00
19797;BME280;10058;57.654;12.044;2023-02-17T00:21:56;100467.94;;;6.80;100.00
19797;BME280;10058;57.654;12.044;2023-02-17T00:27:24;100460.69;;;6.73;100.00
19797;BME280;10058;57.654;12.044;2023-02-17T00:29:50;100456.09;;;6.67;100.00
19797;BME280;10058;57.654;12.044;2023-02-17T00:32:15;100451.53;;;6.63;100.00
19797;BME280;10058;57.654;12.044;2023-02-17T00:34:40;100447.38;;;6.68;100.00
19797;BME280;10058;57.654;12.044;2023-02-17T00:37:05;100441.34;;;6.71;100.00
19797;BME280;10058;57.654;12.044;2023-02-17T00:39:30;100436.88;;;6.68;100.00
19797;BME280;10058;57.654;12.044;2023-02-17T00:41:56;100435.84;;;6.64;100.00
19797;BME280;10058;57.654;12.044;2023-02-17T00:44:22;100424.91;;;6.76;100.00
19797;BME280;10058;57.654;12.044;2023-02-17T00:46:47;100427.44;;;6.73;100.00
19797;BME280;10058;57.654;12.044;2023-02-17T00:49:14;100420.22;;;6.68;100.00
19797;BME280;10058;57.654;12.044;2023-02-17T00:51:39;100424.88;;;6.75;100.00
19797;BME280;10058;57.654;12.044;2023-02-17T00:54:05;100428.88;;;6.65;100.00
19797;BME280;10058;57.654;12.044;2023-02-17T00:56:30;100419.44;;;6.70;100.00
19797;BME280;10058;57.654;12.044;2023-02-17T00:58:55;100408.94;;;6.70;100.00
19797;BME280;10058;57.654;12.044;2023-02-17T01:01:20;100399.97;;;6.65;100.00
19797;BME280;10058;57.654;12.044;2023-02-17T01:03:45;100401.75;;;6.66;100.00
19797;BME280;10058;57.654;12.044;2023-02-17T01:09:13;100397.41;;;6.67;100.00
19797;BME280;10058;57.654;12.044;2023-02-17T01:11:39;100382.31;;;6.61;100.00
19797;BME280;10058;57.654;12.044;2023-02-17T01:14:05;100387.91;;;6.70;100.00
19797;BME280;10058;57.654;12.044;2023-02-17T01:16:42;100387.81;;;6.67;100.00
19797;BME280;10058;57.654;12.044;2023-02-17T01:19:10;100386.13;;;6.69;100.00
19797;BME280;10058;57.654;12.044;2023-02-17T01:21:36;100379.88;;;6.66;100.00
19797;BME280;10058;57.654;12.044;2023-02-17T01:24:02;100375.75;;;6.72;100.00
19797;BME280;10058;57.654;12.044;2023-02-17T01:29:30;100377.53;;;6.73;100.00
19797;BME280;10058;57.654;12.044;2023-02-17T01:31:55;100365.13;;;6.69;100.00
19797;BME280;10058;57.654;12.044;2023-02-17T01:34:21;100358.53;;;6.56;100.00
19797;BME280;10058;57.654;12.044;2023-02-17T01:36:46;100347.22;;;6.59;100.00
19797;BME280;10058;57.654;12.044;2023-02-17T01:39:12;100351.03;;;6.67;100.00
19797;BME280;10058;57.654;12.044;2023-02-17T01:41:37;100343.56;;;6.54;100.00
19797;BME280;10058;57.654;12.044;2023-02-17T01:44:07;100342.09;;;6.62;100.00
19797;BME280;10058;57.654;12.044;2023-02-17T01:49:36;100330.75;;;6.63;100.00
19797;BME280;10058;57.654;12.044;2023-02-17T01:52:18;100329.38;;;6.49;100.00
19797;BME280;10058;57.654;12.044;2023-02-17T01:54:47;100320.66;;;6.50;100.00
19797;BME280;10058;57.654;12.044;2023-02-17T01:57:14;100313.97;;;6.58;100.00
19797;BME280;10058;57.654;12.044;2023-02-17T01:59:40;100302.50;;;6.56;100.00
19797;BME280;10058;57.654;12.044;2023-02-17T02:02:06;100301.31;;;6.48;100.00
19797;BME280;10058;57.654;12.044;2023-02-17T02:07:35;100308.03;;;6.40;100.00
19797;BME280;10058;57.654;12.044;2023-02-17T02:10:02;100299.41;;;6.44;100.00
19797;BME280;10058;57.654;12.044;2023-02-17T02:12:29;100292.38;;;6.43;100.00
19797;BME280;10058;57.654;12.044;2023-02-17T02:14:56;100295.00;;;6.43;100.00
19797;BME280;10058;57.654;12.044;2023-02-17T02:35:32;100260.69;;;6.37;100.00
19797;BME280;10058;57.654;12.044;2023-02-17T02:38:07;100251.13;;;6.39;100.00
19797;BME280;10058;57.654;12.044;2023-02-17T02:40:35;100248.50;;;6.39;100.00
19797;BME280;10058;57.654;12.044;2023-02-17T02:43:03;100243.13;;;6.36;100.00
19797;BME280;10058;57.654;12.044;2023-02-17T02:48:31;100232.41;;;6.29;100.00
19797;BME280;10058;57.654;12.044;2023-02-17T03:01:21;100221.91;;;6.29;100.00
19797;BME280;10058;57.654;12.044;2023-02-17T03:03:51;100223.94;;;6.37;100.00
19797;BME280;10058;57.654;12.044;2023-02-17T03:09:26;100212.53;;;6.36;100.00
19797;BME280;10058;57.654;12.044;2023-02-17T03:11:53;100209.75;;;6.32;100.00
19797;BME280;10058;57.654;12.044;2023-02-17T03:14:20;100209.44;;;6.22;100.00
19797;BME280;10058;57.654;12.044;2023-02-17T03:16:45;100200.38;;;6.14;100.00
19797;BME280;10058;57.654;12.044;2023-02-17T03:19:11;100198.94;;;6.22;100.00
19797;BME280;10058;57.654;12.044;2023-02-17T03:21:42;100186.72;;;6.24;100.00
19797;BME280;10058;57.654;12.044;2023-02-17T03:24:09;100186.66;;;6.21;100.00
19797;BME280;10058;57.654;12.044;2023-02-17T03:29:38;100173.47;;;6.20;100.00
19797;BME280;10058;57.654;12.044;2023-02-17T03:32:03;100167.00;;;6.10;100.00
19797;BME280;10058;57.654;12.044;2023-02-17T03:34:28;100160.19;;;6.15;100.00
19797;BME280;10058;57.654;12.044;2023-02-17T03:36:53;100148.31;;;6.26;100.00
19797;BME280;10058;57.654;12.044;2023-02-17T03:39:19;100153.56;;;6.26;100.00
19797;BME280;10058;57.654;12.044;2023-02-17T03:41:44;100146.94;;;6.12;100.00
19797;BME280;10058;57.654;12.044;2023-02-17T03:44:09;100136.50;;;6.14;100.00
19797;BME280;10058;57.654;12.044;2023-02-17T03:49:37;100122.09;;;6.01;100.00
19797;BME280;10058;57.654;12.044;2023-02-17T03:52:02;100124.66;;;6.00;100.00
19797;BME280;10058;57.654;12.044;2023-02-17T03:54:28;100117.09;;;6.09;100.00
19797;BME280;10058;57.654;12.044;2023-02-17T03:56:53;100106.75;;;6.13;100.00
19797;BME280;10058;57.654;12.044;2023-02-17T03:59:18;100090.59;;;6.01;100.00
19797;BME280;10058;57.654;12.044;2023-02-17T04:01:43;100090.06;;;6.11;100.00
19797;BME280;10058;57.654;12.044;2023-02-17T04:04:08;100079.16;;;5.99;100.00
19797;BME280;10058;57.654;12.044;2023-02-17T04:09:36;100060.47;;;6.15;100.00
19797;BME280;10058;57.654;12.044;2023-02-17T04:12:01;100058.59;;;6.11;100.00
19797;BME280;10058;57.654;12.044;2023-02-17T04:14:26;100060.81;;;5.99;100.00
19797;BME280;10058;57.654;12.044;2023-02-17T04:16:52;100060.38;;;6.12;100.00
19797;BME280;10058;57.654;12.044;2023-02-17T04:19:17;100045.53;;;6.13;100.00
19797;BME280;10058;57.654;12.044;2023-02-17T04:21:42;100044.41;;;6.06;100.00
19797;BME280;10058;57.654;12.044;2023-02-17T04:24:07;100041.38;;;6.19;100.00
19797;BME280;10058;57.654;12.044;2023-02-17T04:29:35;100042.66;;;6.05;100.00
19797;BME280;10058;57.654;12.044;2023-02-17T04:32:00;100035.53;;;6.01;100.00
19797;BME280;10058;57.654;12.044;2023-02-17T04:34:25;100033.84;;;6.03;100.00
19797;BME280;10058;57.654;12.044;2023-02-17T04:36:50;100022.19;;;6.20;100.00
19797;BME280;10058;57.654;12.044;2023-02-17T04:39:16;100015.94;;;6.17;100.00
19797;BME280;10058;57.654;12.044;2023-02-17T04:41:41;100007.78;;;6.35;100.00
19797;BME280;10058;57.654;12.044;2023-02-17T04:44:06;100003.16;;;6.27;100.00
19797;BME280;10058;57.654;12.044;2023-02-17T04:49:34;99990.09;;;6.29;100.00
19797;BME280;10058;57.654;12.044;2023-02-17T04:51:59;99984.94;;;6.32;100.00
19797;BME280;10058;57.654;12.044;2023-02-17T04:54:24;99978.00;;;6.34;100.00
19797;BME280;10058;57.654;12.044;2023-02-17T04:56:49;99970.09;;;6.33;100.00
19797;BME280;10058;57.654;12.044;2023-02-17T04:59:15;99970.66;;;6.22;100.00
19797;BME280;10058;57.654;12.044;2023-02-17T05:01:40;99962.84;;;6.25;100.00
19797;BME280;10058;57.654;12.044;2023-02-17T05:04:05;99952.66;;;6.35;100.00
19797;BME280;10058;57.654;12.044;2023-02-17T05:09:33;99930.66;;;6.31;100.00
19797;BME280;10058;57.654;12.044;2023-02-17T05:11:58;99908.44;;;6.48;100.00
19797;BME280;10058;57.654;12.044;2023-02-17T05:14:23;99914.66;;;6.23;100.00
19797;BME280;10058;57.654;12.044;2023-02-17T05:16:48;99913.44;;;6.41;100.00
19797;BME280;10058;57.654;12.044;2023-02-17T05:19:13;99905.41;;;6.35;100.00
19797;BME280;10058;57.654;12.044;2023-02-17T05:21:39;99908.88;;;6.34;100.00
19797;BME280;10058;57.654;12.044;2023-02-17T05:24:04;99892.66;;;6.47;100.00
19797;BME280;10058;57.654;12.044;2023-02-17T05:29:32;99871.91;;;6.54;100.00
19797;BME280;10058;57.654;12.044;2023-02-17T05:31:57;99866.50;;;6.50;100.00
19797;BME280;10058;57.654;12.044;2023-02-17T05:34:22;99868.38;;;6.54;100.00
19797;BME280;10058;57.654;12.044;2023-02-17T05:36:48;99847.88;;;6.42;100.00
19797;BME280;10058;57.654;12.044;2023-02-17T05:39:13;99839.31;;;6.48;100.00
19797;BME280;10058;57.654;12.044;2023-02-17T05:41:38;99830.44;;;6.44;100.00
19797;BME280;10058;57.654;12.044;2023-02-17T05:44:03;99826.78;;;6.38;100.00
19797;BME280;10058;57.654;12.044;2023-02-17T05:49:31;99851.59;;;6.49;100.00
19797;BME280;10058;57.654;12.044;2023-02-17T05:51:56;99831.84;;;6.32;100.00
19797;BME280;10058;57.654;12.044;2023-02-17T05:54:21;99831.16;;;6.37;100.00
19797;BME280;10058;57.654;12.044;2023-02-17T05:56:47;99840.19;;;6.48;100.00
19797;BME280;10058;57.654;12.044;2023-02-17T05:59:12;99829.84;;;6.53;100.00
19797;BME280;10058;57.654;12.044;2023-02-17T06:01:37;99812.31;;;6.52;100.00
19797;BME280;10058;57.654;12.044;2023-02-17T06:04:02;99816.88;;;6.59;100.00
19797;BME280;10058;57.654;12.044;2023-02-17T06:09:30;99806.97;;;6.49;100.00
19797;BME280;10058;57.654;12.044;2023-02-17T06:11:55;99806.22;;;6.53;100.00
19797;BME280;10058;57.654;12.044;2023-02-17T06:14:21;99799.09;;;6.49;100.00
19797;BME280;10058;57.654;12.044;2023-02-17T06:16:46;99790.50;;;6.54;100.00
19797;BME280;10058;57.654;12.044;2023-02-17T06:19:11;99784.38;;;6.54;100.00
19797;BME280;10058;57.654;12.044;2023-02-17T06:21:36;99775.69;;;6.56;100.00
19797;BME280;10058;57.654;12.044;2023-02-17T06:24:02;99775.19;;;6.38;100.00
19797;BME280;10058;57.654;12.044;2023-02-17T06:29:30;99790.38;;;6.50;100.00
19797;BME280;10058;57.654;12.044;2023-02-17T06:31:55;99783.63;;;6.58;100.00
19797;BME280;10058;57.654;12.044;2023-02-17T06:34:20;99770.97;;;6.45;100.00
19797;BME280;10058;57.654;12.044;2023-02-17T06:36:45;99769.09;;;6.41;100.00
19797;BME280;10058;57.654;12.044;2023-02-17T06:39:11;99769.97;;;6.40;100.00
19797;BME280;10058;57.654;12.044;2023-02-17T06:41:36;99770.53;;;6.61;100.00
19797;BME280;10058;57.654;12.044;2023-02-17T06:44:01;99766.00;;;6.54;100.00
19797;BME280;10058;57.654;12.044;2023-02-17T06:49:29;99767.91;;;6.61;100.00
19797;BME280;10058;57.654;12.044;2023-02-17T06:51:54;99752.03;;;6.55;100.00
19797;BME280;10058;57.654;12.044;2023-02-17T06:54:19;99741.63;;;6.58;100.00
19797;BME280;10058;57.654;12.044;2023-02-17T06:56:44;99719.91;;;6.65;100.00
19797;BME280;10058;57.654;12.044;2023-02-17T06:59:09;99718.00;;;6.59;100.00
19797;BME280;10058;57.654;12.044;2023-02-17T07:01:34;99710.28;;;6.66;100.00
19797;BME280;10058;57.654;12.044;2023-02-17T07:04:00;99698.06;;;6.66;100.00
19797;BME280;10058;57.654;12.044;2023-02-17T07:09:27;99687.56;;;6.66;100.00
19797;BME280;10058;57.654;12.044;2023-02-17T07:11:53;99686.06;;;6.77;100.00
19797;BME280;10058;57.654;12.044;2023-02-17T07:14:18;99677.31;;;6.75;100.00
19797;BME280;10058;57.654;12.044;2023-02-17T07:16:43;99673.78;;;6.76;100.00
19797;BME280;10058;57.654;12.044;2023-02-17T07:19:08;99659.81;;;6.77;100.00
19797;BME280;10058;57.654;12.044;2023-02-17T07:21:33;99665.06;;;6.77;100.00
19797;BME280;10058;57.654;12.044;2023-02-17T07:23:59;99661.13;;;6.60;100.00
19797;BME280;10058;57.654;12.044;2023-02-17T07:29:27;99650.16;;;6.76;100.00
19797;BME280;10058;57.654;12.044;2023-02-17T07:31:52;99642.38;;;6.79;100.00
19797;BME280;10058;57.654;12.044;2023-02-17T07:34:17;99634.16;;;6.66;100.00
19797;BME280;10058;57.654;12.044;2023-02-17T07:36:42;99617.97;;;6.83;100.00
19797;BME280;10058;57.654;12.044;2023-02-17T07:39:07;99611.84;;;6.84;100.00
19797;BME280;10058;57.654;12.044;2023-02-17T07:41:33;99603.22;;;6.88;100.00
19797;BME280;10058;57.654;12.044;2023-02-17T07:43:58;99601.47;;;6.89;100.00
19797;BME280;10058;57.654;12.044;2023-02-17T07:49:26;99592.34;;;6.73;100.00
19797;BME280;10058;57.654;12.044;2023-02-17T07:51:51;99591.50;;;6.74;100.00
19797;BME280;10058;57.654;12.044;2023-02-17T07:54:16;99581.28;;;6.86;100.00
19797;BME280;10058;57.654;12.044;2023-02-17T07:56:42;99572.66;;;6.93;100.00
19797;BME280;10058;57.654;12.044;2023-02-17T07:59:08;99573.13;;;6.76;100.00
19797;BME280;10058;57.654;12.044;2023-02-17T08:01:33;99580.72;;;7.01;100.00
19797;BME280;10058;57.654;12.044;2023-02-17T08:03:59;99558.63;;;6.91;100.00
19797;BME280;10058;57.654;12.044;2023-02-17T08:09:26;99528.09;;;6.96;100.00
19797;BME280;10058;57.654;12.044;2023-02-17T08:12:13;99516.94;;;7.07;100.00
19797;BME280;10058;57.654;12.044;2023-02-17T08:14:58;99521.09;;;6.97;100.00
19797;BME280;10058;57.654;12.044;2023-02-17T08:17:23;99506.38;;;7.04;100.00
19797;BME280;10058;57.654;12.044;2023-02-17T08:19:48;99504.34;;;6.90;100.00
19797;BME280;10058;57.654;12.044;2023-02-17T08:22:14;99500.88;;;6.94;100.00
19797;BME280;10058;57.654;12.044;2023-02-17T08:27:42;99472.34;;;7.10;100.00
19797;BME280;10058;57.654;12.044;2023-02-17T08:30:07;99460.00;;;7.06;100.00
19797;BME280;10058;57.654;12.044;2023-02-17T08:32:32;99457.50;;;7.13;100.00
19797;BME280;10058;57.654;12.044;2023-02-17T08:34:58;99440.19;;;7.23;100.00
19797;BME280;10058;57.654;12.044;2023-02-17T08:37:23;99429.69;;;7.23;100.00
19797;BME280;10058;57.654;12.044;2023-02-17T08:39:48;99430.81;;;7.36;100.00
19797;BME280;10058;57.654;12.044;2023-02-17T08:42:13;99407.06;;;7.31;100.00
19797;BME280;10058;57.654;12.044;2023-02-17T08:44:38;99403.53;;;7.30;100.00
19797;BME280;10058;57.654;12.044;2023-02-17T08:50:07;99389.88;;;7.50;100.00
19797;BME280;10058;57.654;12.044;2023-02-17T08:52:33;99388.19;;;7.53;100.00
19797;BME280;10058;57.654;12.044;2023-02-17T08:54:58;99370.69;;;7.54;100.00
19797;BME280;10058;57.654;12.044;2023-02-17T08:57:23;99370.81;;;7.61;100.00
19797;BME280;10058;57.654;12.044;2023-02-17T08:59:50;99361.19;;;7.63;100.00
19797;BME280;10058;57.654;12.044;2023-02-17T09:02:15;99348.16;;;7.69;100.00
19797;BME280;10058;57.654;12.044;2023-02-17T09:07:43;99338.38;;;7.62;100.00
19797;BME280;10058;57.654;12.044;2023-02-17T09:10:09;99340.41;;;7.77;100.00
19797;BME280;10058;57.654;12.044;2023-02-17T09:12:34;99329.84;;;7.76;100.00
19797;BME280;10058;57.654;12.044;2023-02-17T09:14:59;99319.50;;;7.88;100.00
19797;BME280;10058;57.654;12.044;2023-02-17T09:17:24;99308.06;;;7.86;100.00
19797;BME280;10058;57.654;12.044;2023-02-17T09:19:50;99309.13;;;7.98;100.00
19797;BME280;10058;57.654;12.044;2023-02-17T09:22:15;99289.00;;;8.02;100.00
19797;BME280;10058;57.654;12.044;2023-02-17T09:24:41;99281.91;;;7.95;100.00
19797;BME280;10058;57.654;12.044;2023-02-17T09:30:09;99264.66;;;8.18;100.00
19797;BME280;10058;57.654;12.044;2023-02-17T09:32:35;99252.31;;;8.14;100.00
19797;BME280;10058;57.654;12.044;2023-02-17T09:35:00;99240.22;;;8.25;100.00
19797;BME280;10058;57.654;12.044;2023-02-17T09:37:29;99231.41;;;8.23;100.00
19797;BME280;10058;57.654;12.044;2023-02-17T09:39:54;99220.03;;;8.26;100.00
19797;BME280;10058;57.654;12.044;2023-02-17T09:42:24;99210.28;;;8.17;100.00
19797;BME280;10058;57.654;12.044;2023-02-17T09:47:54;99202.34;;;8.16;100.00
19797;BME280;10058;57.654;12.044;2023-02-17T09:50:22;99196.38;;;8.27;100.00
19797;BME280;10058;57.654;12.044;2023-02-17T09:52:51;99184.13;;;8.29;100.00
19797;BME280;10058;57.654;12.044;2023-02-17T09:55:23;99178.94;;;8.35;100.00
19797;BME280;10058;57.654;12.044;2023-02-17T09:57:57;99166.72;;;8.41;100.00
19797;BME280;10058;57.654;12.044;2023-02-17T10:00:24;99160.53;;;8.37;100.00
19797;BME280;10058;57.654;12.044;2023-02-17T10:02:58;99146.34;;;8.26;100.00
19797;BME280;10058;57.654;12.044;2023-02-17T10:08:39;99147.16;;;8.20;100.00
19797;BME280;10058;57.654;12.044;2023-02-17T10:11:12;99134.94;;;8.25;100.00
19797;BME280;10058;57.654;12.044;2023-02-17T10:13:40;99123.53;;;8.25;100.00
19797;BME280;10058;57.654;12.044;2023-02-17T10:16:08;99115.78;;;8.38;100.00
19797;BME280;10058;57.654;12.044;2023-02-17T10:18:36;99100.75;;;8.28;100.00
19797;BME280;10058;57.654;12.044;2023-02-17T10:21:04;99089.38;;;8.29;100.00
19797;BME280;10058;57.654;12.044;2023-02-17T10:23:31;99073.56;;;8.29;100.00
19797;BME280;10058;57.654;12.044;2023-02-17T10:29:21;99060.41;;;8.28;100.00
19797;BME280;10058;57.654;12.044;2023-02-17T10:32:01;99037.53;;;8.24;100.00
19797;BME280;10058;57.654;12.044;2023-02-17T10:34:36;99029.66;;;8.25;100.00
19797;BME280;10058;57.654;12.044;2023-02-17T10:37:02;99007.00;;;8.41;100.00
19797;BME280;10058;57.654;12.044;2023-02-17T10:39:37;99000.84;;;8.39;100.00
19797;BME280;10058;57.654;12.044;2023-02-17T10:42:09;98983.38;;;8.46;100.00
19797;BME280;10058;57.654;12.044;2023-02-17T10:44:38;98961.41;;;8.44;100.00
19797;BME280;10058;57.654;12.044;2023-02-17T10:50:07;98943.91;;;8.52;100.00
19797;BME280;10058;57.654;12.044;2023-02-17T10:52:39;98937.69;;;8.42;100.00
19797;BME280;10058;57.654;12.044;2023-02-17T10:55:25;98944.78;;;8.48;100.00
19797;BME280;10058;57.654;12.044;2023-02-17T10:57:57;98937.78;;;8.57;100.00
19797;BME280;10058;57.654;12.044;2023-02-17T11:00:24;98908.78;;;8.48;100.00
19797;BME280;10058;57.654;12.044;2023-02-17T11:02:50;98891.28;;;8.58;100.00
19797;BME280;10058;57.654;12.044;2023-02-17T11:08:38;98865.78;;;8.48;100.00
19797;BME280;10058;57.654;12.044;2023-02-17T11:11:15;98857.88;;;8.45;100.00
19797;BME280;10058;57.654;12.044;2023-02-17T11:13:55;98842.09;;;8.46;100.00
19797;BME280;10058;57.654;12.044;2023-02-17T11:16:24;98833.31;;;8.52;100.00
19797;BME280;10058;57.654;12.044;2023-02-17T11:18:50;98818.41;;;8.51;100.00
19797;BME280;10058;57.654;12.044;2023-02-17T11:21:16;98800.81;;;8.41;100.00
19797;BME280;10058;57.654;12.044;2023-02-17T11:23:52;98792.91;;;8.41;100.00
19797;BME280;10058;57.654;12.044;2023-02-17T11:29:21;98763.88;;;8.25;100.00
19797;BME280;10058;57.654;12.044;2023-02-17T11:31:54;98761.25;;;8.30;100.00
19797;BME280;10058;57.654;12.044;2023-02-17T11:34:21;98751.66;;;8.36;100.00
19797;BME280;10058;57.654;12.044;2023-02-17T11:36:55;98742.00;;;8.35;100.00
19797;BME280;10058;57.654;12.044;2023-02-17T11:39:20;98739.38;;;8.38;100.00
19797;BME280;10058;57.654;12.044;2023-02-17T11:41:46;98725.28;;;8.26;100.00
19797;BME280;10058;57.654;12.044;2023-02-17T11:44:20;98732.38;;;8.41;100.00
19797;BME280;10058;57.654;12.044;2023-02-17T12:00:24;98675.41;;;8.64;100.00
19797;BME280;10058;57.654;12.044;2023-02-17T12:11:07;98638.50;;;8.55;100.00
19797;BME280;10058;57.654;12.044;2023-02-17T12:21:11;98606.03;;;8.56;100.00
19797;BME280;10058;57.654;12.044;2023-02-17T12:31:42;98568.31;;;8.63;100.00
19797;BME280;10058;57.654;12.044;2023-02-17T12:34:29;98573.56;;;8.66;100.00
19797;BME280;10058;57.654;12.044;2023-02-17T12:36:55;98574.44;;;8.72;100.00
19797;BME280;10058;57.654;12.044;2023-02-17T12:39:23;98554.25;;;8.76;100.00
19797;BME280;10058;57.654;12.044;2023-02-17T12:44:23;98545.47;;;8.86;100.00
19797;BME280;10058;57.654;12.044;2023-02-17T12:52:23;98548.91;;;9.19;100.00
19797;BME280;10058;57.654;12.044;2023-02-17T12:57:38;98533.13;;;9.08;100.00
19797;BME280;10058;57.654;12.044;2023-02-17T13:00:00;98520.88;;;8.99;100.00
19797;BME280;10058;57.654;12.044;2023-02-17T13:02:27;98515.56;;;9.08;100.00
19797;BME280;10058;57.654;12.044;2023-02-17T13:13:01;98498.94;;;8.97;100.00
19797;BME280;10058;57.654;12.044;2023-02-17T13:15:31;98472.59;;;8.87;100.00
19797;BME280;10058;57.654;12.044;2023-02-17T13:17:58;98489.22;;;9.02;100.00
19797;BME280;10058;57.654;12.044;2023-02-17T13:23:03;98469.03;;;9.09;100.00
19797;BME280;10058;57.654;12.044;2023-02-17T13:28:33;98457.59;;;9.15;100.00
19797;BME280;10058;57.654;12.044;2023-02-17T13:31:06;98445.31;;;9.07;100.00
19797;BME280;10058;57.654;12.044;2023-02-17T13:33:38;98440.03;;;9.14;100.00
19797;BME280;10058;57.654;12.044;2023-02-17T13:36:10;98437.31;;;9.35;100.00
19797;BME280;10058;57.654;12.044;2023-02-17T13:38:35;98418.88;;;9.27;100.00
19797;BME280;10058;57.654;12.044;2023-02-17T13:41:02;98411.88;;;9.19;100.00
19797;BME280;10058;57.654;12.044;2023-02-17T13:43:28;98403.94;;;9.25;100.00
19797;BME280;10058;57.654;12.044;2023-02-17T13:48:58;98385.47;;;9.28;100.00
19797;BME280;10058;57.654;12.044;2023-02-17T13:51:25;98353.88;;;9.22;100.00
19797;BME280;10058;57.654;12.044;2023-02-17T13:53:51;98362.63;;;9.33;100.00
19797;BME280;10058;57.654;12.044;2023-02-17T13:56:23;98346.81;;;9.30;100.00
19797;BME280;10058;57.654;12.044;2023-02-17T13:58:49;98338.84;;;9.40;100.00
19797;BME280;10058;57.654;12.044;2023-02-17T14:01:15;98332.69;;;9.37;100.00
19797;BME280;10058;57.654;12.044;2023-02-17T14:03:43;98320.47;;;9.30;100.00
19797;BME280;10058;57.654;12.044;2023-02-17T14:09:19;98302.94;;;9.18;100.00
19797;BME280;10058;57.654;12.044;2023-02-17T14:11:46;98295.97;;;9.16;100.00
19797;BME280;10058;57.654;12.044;2023-02-17T14:14:11;98271.38;;;9.14;100.00
19797;BME280;10058;57.654;12.044;2023-02-17T14:16:37;98258.13;;;9.24;100.00
19797;BME280;10058;57.654;12.044;2023-02-17T14:19:07;98246.72;;;9.21;100.00
19797;BME280;10058;57.654;12.044;2023-02-17T14:21:34;98225.72;;;9.12;100.00
19797;BME280;10058;57.654;12.044;2023-02-17T14:24:00;98224.00;;;9.07;100.00
19797;BME280;10058;57.654;12.044;2023-02-17T14:29:41;98203.03;;;8.92;100.00
19797;BME280;10058;57.654;12.044;2023-02-17T14:32:24;98209.31;;;8.68;100.00
19797;BME280;10058;57.654;12.044;2023-02-17T14:34:50;98197.91;;;8.71;100.00
19797;BME280;10058;57.654;12.044;2023-02-17T14:37:21;98185.69;;;8.58;100.00
19797;BME280;10058;57.654;12.044;2023-02-17T14:39:47;98182.16;;;8.65;100.00
19797;BME280;10058;57.654;12.044;2023-02-17T14:42:12;98165.50;;;8.61;100.00
19797;BME280;10058;57.654;12.044;2023-02-17T14:47:41;98128.78;;;8.40;100.00
19797;BME280;10058;57.654;12.044;2023-02-17T14:50:06;98114.81;;;8.18;100.00
19797;BME280;10058;57.654;12.044;2023-02-17T14:52:32;98106.06;;;8.21;100.00
19797;BME280;10058;57.654;12.044;2023-02-17T14:54:58;98082.38;;;8.19;100.00
19797;BME280;10058;57.654;12.044;2023-02-17T14:57:24;98073.69;;;8.08;100.00
19797;BME280;10058;57.654;12.044;2023-02-17T14:59:50;98072.75;;;8.18;100.00
19797;BME280;10058;57.654;12.044;2023-02-17T15:02:21;98047.28;;;8.20;100.00
19797;BME280;10058;57.654;12.044;2023-02-17T15:07:49;98021.97;;;8.04;100.00
19797;BME280;10058;57.654;12.044;2023-02-17T15:10:24;98012.34;;;8.00;100.00
19797;BME280;10058;57.654;12.044;2023-02-17T15:12:49;98001.94;;;7.85;100.00
19797;BME280;10058;57.654;12.044;2023-02-17T15:15:15;97983.53;;;7.82;100.00
19797;BME280;10058;57.654;12.044;2023-02-17T15:17:41;97969.53;;;7.81;100.00
19797;BME280;10058;57.654;12.044;2023-02-17T15:20:06;97966.94;;;7.77;100.00
19797;BME280;10058;57.654;12.044;2023-02-17T15:22:34;97952.94;;;7.72;100.00
19797;BME280;10058;57.654;12.044;2023-02-17T15:28:02;97925.84;;;7.62;100.00
19797;BME280;10058;57.654;12.044;2023-02-17T15:30:28;97898.84;;;7.40;100.00
19797;BME280;10058;57.654;12.044;2023-02-17T15:32:53;97914.63;;;7.37;100.00
19797;BME280;10058;57.654;12.044;2023-02-17T15:35:20;97902.28;;;7.48;100.00
19797;BME280;10058;57.654;12.044;2023-02-17T15:37:45;97885.59;;;7.57;100.00
19797;BME280;10058;57.654;12.044;2023-02-17T15:40:14;97876.97;;;7.33;100.00
19797;BME280;10058;57.654;12.044;2023-02-17T15:42:40;97862.97;;;7.31;100.00
19797;BME280;10058;57.654;12.044;2023-02-17T15:48:26;97844.66;;;7.24;100.00
19797;BME280;10058;57.654;12.044;2023-02-17T15:50:54;97844.53;;;7.39;100.00
19797;BME280;10058;57.654;12.044;2023-02-17T15:53:19;97834.19;;;7.12;100.00
19797;BME280;10058;57.654;12.044;2023-02-17T15:55:45;97857.78;;;7.21;100.00
19797;BME280;10058;57.654;12.044;2023-02-17T15:58:14;97841.13;;;7.25;100.00
19797;BME280;10058;57.654;12.044;2023-02-17T16:00:40;97845.56;;;7.12;100.00
19797;BME280;10058;57.654;12.044;2023-02-17T16:03:08;97831.53;;;7.22;100.00
19797;BME280;10058;57.654;12.044;2023-02-17T16:08:36;97830.63;;;7.25;100.00
19797;BME280;10058;57.654;12.044;2023-02-17T16:11:01;97830.66;;;7.22;100.00
19797;BME280;10058;57.654;12.044;2023-02-17T16:13:26;97827.09;;;7.29;100.00
19797;BME280;10058;57.654;12.044;2023-02-17T16:15:52;97812.25;;;7.25;100.00
19797;BME280;10058;57.654;12.044;2023-02-17T16:18:20;97816.56;;;7.32;100.00
19797;BME280;10058;57.654;12.044;2023-02-17T16:20:46;97807.75;;;7.39;100.00
19797;BME280;10058;57.654;12.044;2023-02-17T16:23:11;97788.56;;;7.29;100.00